Overview Statistics Trail Chart Weather Telemetry Raw packets
 

This is the latest recevied weather packets stored in our database for station/object EA5JMY-10. If no packets are shown the sender has not sent any weather packets the latest 10 day(s).

<< 35 36 37 38 39 >>
Time Temp. Humidity Pressure Rain* Wind** Luminosity Snow
1787797151 26.11° C 62% 1012 hPa - - - -
1787796251 26.11° C 64% 1012.1 hPa - - - -
1787795351 27.22° C 60% 1011.9 hPa - - - -
1787794451 27.22° C 60% 1011.7 hPa - - - -
1787793551 27.22° C 61% 1011.5 hPa - - - -
1787792651 27.22° C 60% 1011.5 hPa - - - -
1787791751 27.78° C 58% 1011.5 hPa - - - -
1787790851 27.78° C 58% 1012 hPa - - - -
1787789950 28.33° C 53% 1011.7 hPa - - - -
1787789050 28.33° C 53% 1011.5 hPa - - - -
1787788150 28.33° C 54% 1011.7 hPa - - - -
1787787250 28.33° C 53% 1011.9 hPa - - - -
1787786350 28.89° C 49% 1011.4 hPa - - - -
1787785450 29.44° C 46% 1011.2 hPa - - - -
1787784550 30° C 44% 1011.4 hPa - - - -
1787783649 30.56° C 38% 1011.2 hPa - - - -
1787782749 30° C 36% 1011.6 hPa - - - -
1787781849 30° C 38% 1011.6 hPa - - - -
1787780949 30° C 33% 1011.6 hPa - - - -
1787780049 31.11° C 27% 1011.7 hPa - - - -
1787779149 31.67° C 26% 1011.4 hPa - - - -
1787778249 30.56° C 29% 1011.6 hPa - - - -
1787777349 29.44° C 34% 1011.7 hPa - - - -
1787776449 31.11° C 31% 1011.7 hPa - - - -
1787775548 30.56° C 30% 1011.5 hPa - - - -

* Rain since midnight (hover to see other rain measurements)
** Current wind speed in m/s (hover to see current wind gust speed)